createdAt,value
2019-05-17T00:02:08.315Z,9.02
2019-05-17T00:04:37.641Z,8.93
2019-05-17T00:07:07.067Z,9.09
2019-05-17T00:09:37.406Z,8.97
2019-05-17T00:12:07.527Z,8.84
2019-05-17T00:14:36.977Z,8.87
2019-05-17T00:17:06.794Z,8.86
2019-05-17T00:19:36.885Z,8.67
2019-05-17T00:22:08.294Z,8.68
2019-05-17T00:24:38.086Z,8.50
2019-05-17T00:27:08.038Z,8.65
2019-05-17T00:29:42.106Z,8.75
2019-05-17T00:32:11.799Z,8.68
2019-05-17T00:34:41.474Z,8.64
2019-05-17T00:37:14.678Z,8.59
2019-05-17T00:39:47.172Z,8.63
2019-05-17T00:42:17.122Z,8.55
2019-05-17T00:44:47.401Z,8.52
2019-05-17T00:47:17.226Z,8.49
2019-05-17T00:49:47.113Z,8.46
2019-05-17T00:52:16.815Z,8.46
2019-05-17T00:54:48.767Z,8.40
2019-05-17T00:57:18.649Z,8.38
2019-05-17T00:59:48.131Z,8.18
2019-05-17T01:02:17.787Z,8.27
2019-05-17T01:04:47.727Z,8.17
2019-05-17T01:07:17.714Z,8.04
2019-05-17T01:09:47.347Z,8.28
2019-05-17T01:12:16.643Z,8.24
2019-05-17T01:14:46.628Z,8.40
2019-05-17T01:17:17.135Z,8.22
2019-05-17T01:19:47.234Z,8.21
2019-05-17T01:22:17.013Z,8.19
2019-05-17T01:24:46.409Z,8.20
2019-05-17T01:27:17.214Z,8.03
2019-05-17T01:29:46.739Z,8.01
2019-05-17T01:32:17.288Z,7.98
2019-05-17T01:34:46.965Z,8.08
2019-05-17T01:37:17.151Z,7.95
2019-05-17T01:39:46.970Z,8.19
2019-05-17T01:42:17.159Z,8.12
2019-05-17T01:44:47.226Z,8.03
2019-05-17T01:47:16.793Z,8.15
2019-05-17T01:49:46.939Z,8.03
2019-05-17T01:52:16.774Z,7.89
2019-05-17T01:54:46.934Z,7.78
2019-05-17T01:57:16.945Z,7.79
2019-05-17T01:59:46.806Z,7.82
2019-05-17T02:02:24.203Z,7.72
2019-05-17T02:04:53.617Z,7.79
2019-05-17T02:07:22.957Z,7.81
2019-05-17T02:09:52.294Z,7.73
2019-05-17T02:12:21.619Z,7.86
2019-05-17T02:14:50.959Z,7.82
2019-05-17T02:17:20.327Z,7.80
2019-05-17T02:19:49.660Z,7.60
2019-05-17T02:22:19.013Z,7.58
2019-05-17T02:24:48.348Z,7.55
2019-05-17T02:27:18.124Z,7.54
2019-05-17T02:29:47.461Z,7.51
2019-05-17T02:32:17.326Z,7.48
2019-05-17T02:34:46.674Z,7.50
2019-05-17T02:37:16.007Z,7.65
2019-05-17T02:39:58.287Z,7.83
2019-05-17T02:42:16.691Z,7.83
2019-05-17T02:44:46.102Z,7.85
2019-05-17T02:47:15.437Z,7.81
2019-05-17T02:49:44.775Z,7.64
2019-05-17T02:52:14.104Z,7.60
2019-05-17T02:54:43.828Z,7.51
2019-05-17T02:57:14.128Z,7.48
2019-05-17T02:59:44.051Z,7.55
2019-05-17T03:02:13.447Z,7.62
2019-05-17T03:04:43.409Z,7.87
2019-05-17T03:07:13.734Z,8.02
2019-05-17T03:09:43.366Z,7.98
2019-05-17T03:12:12.991Z,8.01
2019-05-17T03:14:43.253Z,7.78
2019-05-17T03:17:14.004Z,7.59
2019-05-17T03:19:44.001Z,7.49
2019-05-17T03:22:13.435Z,7.38
2019-05-17T03:24:43.957Z,7.36
2019-05-17T03:27:13.814Z,7.29
2019-05-17T03:29:43.257Z,7.26
2019-05-17T03:32:17.420Z,7.28
2019-05-17T03:34:47.583Z,7.33
2019-05-17T03:37:17.171Z,7.78
2019-05-17T03:39:46.551Z,7.53
2019-05-17T03:42:15.887Z,7.32
2019-05-17T03:44:45.233Z,7.27
2019-05-17T03:47:14.565Z,7.25
2019-05-17T03:49:43.968Z,7.31
2019-05-17T03:52:13.785Z,7.17
2019-05-17T03:54:43.254Z,7.23
2019-05-17T03:57:13.443Z,7.19
2019-05-17T03:59:43.224Z,7.19
2019-05-17T04:02:12.690Z,7.04
2019-05-17T04:04:42.936Z,7.19
2019-05-17T04:07:12.880Z,7.01
2019-05-17T04:09:43.722Z,7.22
2019-05-17T04:12:13.770Z,7.09
2019-05-17T04:14:43.189Z,7.11
2019-05-17T04:17:13.302Z,7.22
2019-05-17T04:19:42.817Z,7.07
2019-05-17T04:22:13.873Z,7.24
2019-05-17T04:24:43.988Z,7.23
2019-05-17T04:27:13.708Z,7.27
2019-05-17T04:29:43.202Z,7.44
2019-05-17T04:32:13.098Z,7.37
2019-05-17T04:34:43.751Z,7.47
2019-05-17T04:37:13.282Z,7.58
2019-05-17T04:39:43.354Z,7.57
2019-05-17T04:42:13.603Z,7.66
2019-05-17T04:44:43.406Z,7.83
2019-05-17T04:47:13.431Z,7.88
2019-05-17T04:49:44.042Z,7.93
2019-05-17T04:52:13.960Z,8.05
2019-05-17T04:54:44.303Z,8.17
2019-05-17T04:57:13.937Z,8.42
2019-05-17T04:59:43.628Z,8.48
2019-05-17T05:02:13.372Z,8.59
2019-05-17T05:04:43.727Z,8.77
2019-05-17T05:07:13.889Z,8.74
2019-05-17T05:09:43.339Z,8.85
2019-05-17T05:12:12.783Z,9.06
2019-05-17T05:14:43.166Z,8.86
2019-05-17T05:17:12.982Z,9.29
2019-05-17T05:19:42.465Z,9.14
2019-05-17T05:22:13.503Z,9.25
2019-05-17T05:24:43.095Z,9.69
2019-05-17T05:27:12.426Z,9.40
2019-05-17T05:29:41.774Z,9.50
2019-05-17T05:32:11.819Z,9.60
2019-05-17T05:34:42.926Z,9.85
2019-05-17T05:37:12.603Z,9.81
2019-05-17T05:39:41.994Z,10.07
2019-05-17T05:42:13.822Z,10.07
2019-05-17T05:44:42.400Z,10.07
2019-05-17T05:47:11.790Z,10.03
2019-05-17T05:49:42.579Z,10.41
2019-05-17T05:52:12.515Z,10.61
2019-05-17T05:54:43.532Z,10.49
2019-05-17T05:57:12.953Z,10.37
2019-05-17T05:59:42.590Z,10.27
2019-05-17T06:02:12.293Z,10.36
2019-05-17T06:04:42.451Z,10.49
2019-05-17T06:07:12.879Z,10.70
2019-05-17T06:09:42.500Z,10.64
2019-05-17T06:12:23.401Z,10.76
2019-05-17T06:14:42.981Z,10.99
2019-05-17T06:17:12.694Z,10.95
2019-05-17T06:19:42.296Z,11.31
2019-05-17T06:22:12.111Z,11.33
2019-05-17T06:24:42.472Z,11.38
2019-05-17T06:27:12.393Z,11.20
2019-05-17T06:29:41.781Z,11.44
2019-05-17T06:32:11.883Z,11.29
2019-05-17T06:34:42.218Z,11.48
2019-05-17T06:37:12.996Z,11.62
2019-05-17T06:39:42.825Z,11.68
2019-05-17T06:42:12.212Z,11.71
2019-05-17T06:44:41.889Z,11.77
2019-05-17T06:47:11.943Z,11.91
2019-05-17T06:49:42.380Z,11.82
2019-05-17T06:52:11.925Z,12.01
2019-05-17T06:54:41.716Z,12.01
2019-05-17T06:57:12.792Z,11.90
2019-05-17T06:59:42.307Z,12.22
2019-05-17T07:02:11.645Z,12.34
2019-05-17T07:04:40.997Z,12.21
2019-05-17T07:07:30.388Z,12.47
2019-05-17T07:10:45.956Z,12.65
2019-05-17T07:13:15.290Z,12.51
2019-05-17T07:15:47.838Z,12.43
2019-05-17T07:18:21.333Z,12.75
2019-05-17T07:20:50.719Z,12.86
2019-05-17T07:23:20.047Z,13.20
2019-05-17T07:25:55.332Z,13.17
2019-05-17T07:28:24.661Z,12.88
2019-05-17T07:30:53.992Z,13.20
2019-05-17T07:33:23.347Z,13.07
2019-05-17T07:36:05.156Z,13.07
2019-05-17T07:38:47.089Z,13.26
2019-05-17T07:41:16.420Z,13.26
2019-05-17T07:43:45.756Z,13.62
2019-05-17T07:46:26.779Z,13.60
2019-05-17T07:48:56.108Z,13.60
2019-05-17T07:51:25.737Z,13.98
2019-05-17T07:54:07.494Z,14.06
2019-05-17T07:56:50.561Z,14.34
2019-05-17T07:59:31.754Z,14.34
2019-05-17T08:02:13.417Z,14.33
2019-05-17T08:04:42.764Z,14.33
2019-05-17T08:07:31.432Z,14.27
2019-05-17T08:10:01.085Z,14.27
2019-05-17T08:12:30.725Z,14.57
2019-05-17T08:15:46.606Z,14.45
2019-05-17T08:18:35.210Z,14.59
2019-05-17T08:21:04.569Z,14.59
2019-05-17T08:23:53.239Z,14.72
2019-05-17T08:26:22.594Z,15.02
2019-05-17T08:29:11.283Z,15.11
2019-05-17T08:31:53.241Z,15.23
2019-05-17T08:34:22.583Z,15.23
2019-05-17T08:36:51.917Z,15.16
2019-05-17T08:39:21.266Z,15.34
2019-05-17T08:42:09.975Z,15.59
2019-05-17T08:44:51.068Z,15.80
2019-05-17T08:47:20.989Z,15.80
2019-05-17T08:50:11.100Z,15.90
2019-05-17T08:52:40.508Z,15.90
2019-05-17T08:55:16.128Z,15.92
2019-05-17T08:57:45.491Z,16.07
2019-05-17T09:00:54.744Z,15.81
2019-05-17T09:03:24.074Z,15.73
2019-05-17T09:05:53.422Z,15.85
2019-05-17T09:08:42.104Z,15.83
2019-05-17T09:11:11.432Z,16.32
2019-05-17T09:13:53.404Z,16.36
2019-05-17T09:16:30.990Z,16.65
2019-05-17T09:19:00.632Z,16.69
2019-05-17T09:21:50.467Z,16.65
2019-05-17T09:24:19.790Z,16.76
2019-05-17T09:26:49.333Z,16.73
2019-05-17T09:29:25.631Z,16.98
2019-05-17T09:31:54.964Z,16.74
2019-05-17T09:34:24.312Z,16.74
2019-05-17T09:36:53.768Z,17.16
2019-05-17T09:39:23.108Z,17.56
2019-05-17T09:41:52.545Z,17.12
2019-05-17T09:44:21.897Z,16.67
2019-05-17T09:46:51.231Z,17.32
2019-05-17T09:49:20.586Z,17.71
2019-05-17T09:51:49.923Z,17.60
2019-05-17T09:54:20.158Z,17.54
2019-05-17T09:56:49.852Z,17.56
2019-05-17T09:59:20.364Z,17.61
2019-05-17T10:01:49.829Z,17.93
2019-05-17T10:04:19.841Z,18.06
2019-05-17T10:06:51.216Z,18.36
2019-05-17T10:09:20.454Z,18.45
2019-05-17T10:11:49.786Z,18.54
2019-05-17T10:14:28.081Z,18.48
2019-05-17T10:16:50.176Z,18.69
2019-05-17T10:19:21.874Z,18.77
2019-05-17T10:21:50.620Z,18.46
2019-05-17T10:24:28.057Z,18.28
2019-05-17T10:26:51.029Z,18.49
2019-05-17T10:29:20.370Z,18.61
2019-05-17T10:31:50.449Z,18.49
2019-05-17T10:34:20.366Z,18.74
2019-05-17T10:36:50.665Z,18.85
2019-05-17T10:39:20.454Z,19.13
2019-05-17T10:41:50.117Z,19.29
2019-05-17T10:44:19.925Z,19.23
2019-05-17T10:46:49.260Z,19.02
2019-05-17T10:49:20.182Z,18.80
2019-05-17T10:51:49.807Z,19.02
2019-05-17T10:54:20.586Z,19.35
2019-05-17T10:56:50.323Z,19.33
2019-05-17T10:59:20.301Z,19.32
2019-05-17T11:01:50.313Z,19.47
2019-05-17T11:04:19.852Z,19.50
2019-05-17T11:06:50.067Z,19.21
2019-05-17T11:09:20.497Z,19.64
2019-05-17T11:11:50.167Z,19.50
2019-05-17T11:14:19.514Z,19.27
2019-05-17T11:16:48.844Z,19.45
2019-05-17T11:19:18.194Z,19.60
2019-05-17T11:21:47.536Z,19.73
2019-05-17T11:24:16.874Z,19.61
2019-05-17T11:26:46.192Z,19.46
2019-05-17T11:29:15.538Z,19.19
2019-05-17T11:31:44.869Z,19.66
2019-05-17T11:34:14.200Z,19.58
2019-05-17T11:36:43.558Z,19.66
2019-05-17T11:39:12.887Z,19.64
2019-05-17T11:41:42.240Z,19.74
2019-05-17T11:44:11.585Z,19.79
2019-05-17T11:46:40.918Z,19.54
2019-05-17T11:49:10.248Z,19.62
2019-05-17T11:51:39.612Z,19.57
2019-05-17T11:54:09.191Z,19.54
2019-05-17T11:56:38.886Z,19.71
2019-05-17T11:59:08.235Z,19.83
2019-05-17T12:01:37.565Z,19.66
2019-05-17T12:04:06.972Z,19.62
2019-05-17T12:06:36.592Z,19.86
2019-05-17T12:09:06.670Z,19.78
2019-05-17T12:11:36.011Z,19.87
2019-05-17T12:14:05.423Z,20.04
2019-05-17T12:16:34.748Z,19.76
2019-05-17T12:19:04.741Z,19.99
2019-05-17T12:21:34.071Z,20.17
2019-05-17T12:24:03.399Z,20.20
2019-05-17T12:26:32.749Z,20.12
2019-05-17T12:29:02.086Z,20.13
2019-05-17T12:31:31.728Z,20.41
2019-05-17T12:34:01.074Z,20.45
2019-05-17T12:36:30.409Z,20.39
2019-05-17T12:38:59.738Z,20.34
2019-05-17T12:41:29.086Z,20.42
2019-05-17T12:43:58.416Z,20.42
2019-05-17T12:46:27.754Z,20.75
2019-05-17T12:48:57.095Z,21.08
2019-05-17T12:51:26.430Z,21.30
2019-05-17T12:53:55.759Z,21.54
2019-05-17T12:56:25.117Z,21.32
2019-05-17T12:58:54.451Z,20.91
2019-05-17T13:01:23.781Z,20.83
2019-05-17T13:03:53.121Z,20.87
2019-05-17T13:06:22.457Z,20.84
2019-05-17T13:08:51.797Z,20.85
2019-05-17T13:11:21.149Z,21.16
2019-05-17T13:13:50.465Z,21.06
2019-05-17T13:16:19.805Z,21.13
2019-05-17T13:18:49.150Z,20.75
2019-05-17T13:21:18.471Z,20.92
2019-05-17T13:23:47.803Z,21.23
2019-05-17T13:26:17.153Z,21.28
2019-05-17T13:28:46.487Z,21.15
2019-05-17T13:31:15.818Z,21.18
2019-05-17T13:33:45.164Z,21.18
2019-05-17T13:36:14.768Z,20.90
2019-05-17T13:38:44.098Z,20.98
2019-05-17T13:41:13.456Z,21.19
2019-05-17T13:43:42.810Z,21.24
2019-05-17T13:46:12.225Z,21.15
2019-05-17T13:48:41.538Z,21.03
2019-05-17T13:51:10.795Z,21.11
2019-05-17T13:53:40.125Z,20.78
2019-05-17T13:56:09.457Z,20.47
2019-05-17T13:58:38.812Z,20.46
2019-05-17T14:01:08.132Z,20.53
2019-05-17T14:03:37.524Z,20.91
2019-05-17T14:06:06.838Z,20.93
2019-05-17T14:08:36.089Z,20.86
2019-05-17T14:11:05.515Z,20.68
2019-05-17T14:13:34.867Z,20.43
2019-05-17T14:16:04.240Z,20.36
2019-05-17T14:18:33.574Z,20.23
2019-05-17T14:21:03.906Z,20.51
2019-05-17T14:23:33.540Z,20.54
2019-05-17T14:26:03.034Z,20.46
2019-05-17T14:28:32.468Z,20.18
2019-05-17T14:31:02.148Z,20.17
2019-05-17T14:33:31.765Z,20.09
2019-05-17T14:36:01.104Z,20.33
2019-05-17T14:38:30.427Z,20.21
2019-05-17T14:41:06.320Z,20.19
2019-05-17T14:43:31.764Z,20.18
2019-05-17T14:46:01.355Z,20.33
2019-05-17T14:48:30.698Z,20.52
2019-05-17T14:51:00.146Z,20.46
2019-05-17T14:53:29.457Z,20.46
2019-05-17T14:55:58.794Z,20.48
2019-05-17T14:58:28.119Z,20.33
2019-05-17T15:00:57.577Z,20.35
2019-05-17T15:03:26.930Z,20.33
2019-05-17T15:05:56.261Z,20.42
2019-05-17T15:08:25.856Z,20.22
2019-05-17T15:10:55.216Z,19.83
2019-05-17T15:13:24.511Z,19.71
2019-05-17T15:15:53.833Z,19.58
2019-05-17T15:18:23.175Z,19.44
2019-05-17T15:20:52.497Z,19.52
2019-05-17T15:23:21.885Z,19.66
2019-05-17T15:25:51.291Z,19.64
2019-05-17T15:28:20.619Z,19.58
2019-05-17T15:30:49.947Z,19.28
2019-05-17T15:33:19.562Z,19.07
2019-05-17T15:35:48.890Z,18.86
2019-05-17T15:38:18.229Z,18.82
2019-05-17T15:40:47.557Z,18.48
2019-05-17T15:43:16.889Z,18.10
2019-05-17T15:45:46.218Z,17.69
2019-05-17T15:48:15.547Z,17.66
2019-05-17T15:50:44.900Z,17.46
2019-05-17T15:53:14.230Z,17.51
2019-05-17T15:55:43.557Z,17.52
2019-05-17T15:58:12.944Z,17.29
2019-05-17T16:00:42.250Z,17.20
2019-05-17T16:03:11.605Z,17.11
2019-05-17T16:05:40.932Z,16.92
2019-05-17T16:08:10.303Z,16.78
2019-05-17T16:10:39.588Z,16.66
2019-05-17T16:13:08.926Z,16.73
2019-05-17T16:15:38.247Z,16.57
2019-05-17T16:18:07.573Z,16.45
2019-05-17T16:20:36.900Z,16.52
2019-05-17T16:23:06.262Z,16.33
2019-05-17T16:25:35.893Z,16.41
2019-05-17T16:28:05.231Z,16.35
2019-05-17T16:30:34.559Z,16.34
2019-05-17T16:33:03.878Z,16.23
2019-05-17T16:35:33.147Z,16.01
2019-05-17T16:38:02.479Z,16.04
2019-05-17T16:40:31.814Z,15.91
2019-05-17T16:43:16.782Z,16.11
2019-05-17T16:45:32.166Z,16.09
2019-05-17T16:48:01.493Z,16.06
2019-05-17T16:50:30.745Z,15.96
2019-05-17T16:53:05.931Z,16.02
2019-05-17T16:55:31.473Z,16.20
2019-05-17T16:58:00.885Z,16.25
2019-05-17T17:00:41.841Z,16.16
2019-05-17T17:03:11.178Z,16.13
2019-05-17T17:05:40.507Z,16.14
2019-05-17T17:08:09.967Z,16.32
2019-05-17T17:10:39.303Z,16.03
2019-05-17T17:13:08.702Z,16.09
2019-05-17T17:15:38.099Z,16.04
2019-05-17T17:18:07.531Z,15.92
2019-05-17T17:20:36.938Z,16.12
2019-05-17T17:23:06.257Z,16.02
2019-05-17T17:25:35.581Z,16.01
2019-05-17T17:28:06.172Z,15.88
2019-05-17T17:30:35.582Z,16.08
2019-05-17T17:33:04.984Z,16.09
2019-05-17T17:35:34.802Z,16.10
2019-05-17T17:38:04.194Z,15.93
2019-05-17T17:40:33.595Z,16.05
2019-05-17T17:43:02.916Z,16.15
2019-05-17T17:45:32.246Z,16.00
2019-05-17T17:48:01.568Z,15.85
2019-05-17T17:50:30.835Z,15.90
2019-05-17T17:53:00.426Z,15.87
2019-05-17T17:55:29.719Z,15.95
2019-05-17T17:57:59.051Z,15.85
2019-05-17T18:00:28.441Z,15.83
2019-05-17T18:02:57.790Z,15.82
2019-05-17T18:05:27.099Z,15.77
2019-05-17T18:07:56.568Z,15.84
2019-05-17T18:10:31.666Z,15.92
2019-05-17T18:13:01.131Z,15.85
2019-05-17T18:15:43.983Z,15.67
2019-05-17T18:18:13.964Z,15.80
2019-05-17T18:20:43.543Z,15.79
2019-05-17T18:23:13.097Z,15.75
2019-05-17T18:25:42.491Z,15.59
2019-05-17T18:28:11.992Z,15.51
2019-05-17T18:30:41.454Z,15.35
2019-05-17T18:33:10.842Z,15.35
2019-05-17T18:35:40.645Z,15.40
2019-05-17T18:38:10.599Z,15.47
2019-05-17T18:40:39.951Z,15.37
2019-05-17T18:43:09.270Z,15.38
2019-05-17T18:45:41.050Z,15.28
2019-05-17T18:48:11.640Z,15.17
2019-05-17T18:50:41.034Z,15.20
2019-05-17T18:53:16.522Z,15.24
2019-05-17T18:55:41.484Z,15.14
2019-05-17T18:58:10.816Z,15.22
2019-05-17T19:00:40.152Z,15.09
2019-05-17T19:03:09.469Z,14.97
2019-05-17T19:05:38.809Z,14.92
2019-05-17T19:08:08.161Z,15.15
2019-05-17T19:10:37.567Z,14.92
2019-05-17T19:13:07.146Z,14.89
2019-05-17T19:15:36.473Z,14.78
2019-05-17T19:18:05.810Z,14.71
2019-05-17T19:20:35.134Z,14.59
2019-05-17T19:23:04.537Z,14.60
2019-05-17T19:25:34.089Z,14.57
2019-05-17T19:28:03.491Z,14.58
2019-05-17T19:30:33.167Z,14.61
2019-05-17T19:33:02.489Z,14.37
2019-05-17T19:35:31.825Z,14.57
2019-05-17T19:38:01.152Z,14.57
2019-05-17T19:40:31.170Z,14.47
2019-05-17T19:43:00.731Z,14.19
2019-05-17T19:45:30.066Z,14.19
2019-05-17T19:47:59.387Z,14.21
2019-05-17T19:50:28.720Z,14.17
2019-05-17T19:52:58.058Z,14.33
2019-05-17T19:55:27.446Z,14.43
2019-05-17T19:57:56.781Z,14.42
2019-05-17T20:00:26.184Z,14.49
2019-05-17T20:02:55.540Z,14.49
2019-05-17T20:05:24.889Z,14.30
2019-05-17T20:07:55.253Z,14.04
2019-05-17T20:10:25.040Z,14.37
2019-05-17T20:12:55.475Z,14.37
2019-05-17T20:15:34.213Z,14.36
2019-05-17T20:17:55.844Z,14.25
2019-05-17T20:20:25.184Z,14.17
2019-05-17T20:22:54.559Z,14.04
2019-05-17T20:25:23.877Z,13.94
2019-05-17T20:27:53.271Z,14.13
2019-05-17T20:30:22.614Z,14.13
2019-05-17T20:32:51.963Z,14.15
2019-05-17T20:35:21.317Z,14.15
2019-05-17T20:37:50.658Z,14.51
2019-05-17T20:40:20.060Z,14.51
2019-05-17T20:42:49.439Z,14.37
2019-05-17T20:45:32.047Z,14.22
2019-05-17T20:47:49.929Z,14.26
2019-05-17T20:50:19.432Z,14.24
2019-05-17T20:52:48.777Z,14.23
2019-05-17T20:55:18.124Z,14.17
2019-05-17T20:57:47.467Z,14.17
2019-05-17T21:00:18.260Z,14.23
2019-05-17T21:02:47.593Z,14.17
2019-05-17T21:05:18.435Z,14.04
2019-05-17T21:07:47.765Z,14.04
2019-05-17T21:10:17.341Z,14.30
2019-05-17T21:12:46.715Z,14.47
2019-05-17T21:15:16.168Z,14.68
2019-05-17T21:17:45.520Z,14.68
2019-05-17T21:20:16.649Z,14.54
2019-05-17T21:22:46.000Z,14.64
2019-05-17T21:25:15.475Z,14.45
2019-05-17T21:27:44.784Z,14.45
2019-05-17T21:30:15.555Z,14.39
2019-05-17T21:32:47.797Z,14.45
2019-05-17T21:38:18.594Z,14.19
2019-05-17T21:40:59.747Z,14.19
2019-05-17T21:43:41.637Z,14.35
2019-05-17T21:46:10.984Z,14.33
2019-05-17T21:48:40.360Z,14.33
2019-05-17T21:51:09.642Z,14.21
2019-05-17T21:53:58.319Z,14.03
2019-05-17T21:56:27.897Z,14.03
2019-05-17T21:59:12.625Z,13.98
2019-05-17T22:01:40.769Z,13.93
2019-05-17T22:04:29.454Z,14.27
2019-05-17T22:06:58.898Z,14.27
2019-05-17T22:09:28.207Z,14.18
2019-05-17T22:12:11.782Z,14.10
2019-05-17T22:14:52.779Z,14.11
2019-05-17T22:17:22.347Z,14.14
2019-05-17T22:20:11.041Z,14.01
2019-05-17T22:22:40.413Z,14.01
2019-05-17T22:25:29.098Z,13.98
2019-05-17T22:27:58.428Z,13.98
2019-05-17T22:30:47.119Z,13.97
2019-05-17T22:33:16.787Z,13.97
2019-05-17T22:35:46.132Z,14.04
2019-05-17T22:38:28.065Z,14.20
2019-05-17T22:40:57.399Z,14.20
2019-05-17T22:43:26.737Z,14.24
2019-05-17T22:45:56.067Z,14.11
2019-05-17T22:48:44.846Z,14.43
2019-05-17T22:51:26.321Z,14.43
2019-05-17T22:53:55.659Z,14.55
2019-05-17T22:56:24.986Z,14.55
2019-05-17T22:59:12.026Z,14.26
2019-05-17T23:01:53.773Z,14.25
2019-05-17T23:04:23.121Z,14.25
2019-05-17T23:07:11.796Z,14.27
2019-05-17T23:09:41.144Z,14.27
2019-05-17T23:12:10.481Z,14.20
2019-05-17T23:14:39.819Z,14.01
2019-05-17T23:17:09.194Z,14.08
2019-05-17T23:19:57.873Z,13.99
2019-05-17T23:22:27.216Z,13.99
2019-05-17T23:25:15.893Z,13.98
2019-05-17T23:27:45.248Z,13.98
2019-05-17T23:30:33.848Z,14.04
2019-05-17T23:33:03.197Z,14.04
2019-05-17T23:35:51.814Z,13.87
2019-05-17T23:38:21.159Z,13.87
2019-05-17T23:40:50.498Z,13.92
2019-05-17T23:43:50.845Z,13.64
2019-05-17T23:46:20.178Z,13.64
2019-05-17T23:49:08.868Z,13.53
2019-05-17T23:51:38.208Z,13.53
2019-05-17T23:54:26.892Z,13.91
2019-05-17T23:57:07.920Z,13.74
2019-05-17T23:59:48.986Z,13.20
